KFDK/FDK METAR and TAF weather

Enter ICAO airport designator
Station Type Date Time Source
KFDK METAR 2022/06/27 08:40 UTC NOAA

KFDK 270840Z AUTO 19004KT 10SM SCT044 SCT065 BKN080 21/21 A2996 RMK AO2


Station Type Date Time Source
KFDK Decoded METAR 2022/06/27 08:40 UTC NOAA

Frederick, Frederick Municipal Airport, MD, United States (KFDK) 39-25-03N 077-22-28W
Jun 27, 2022 - 04:40 AM EDT / 2022.06.27 0840 UTC
Wind: from the S (190 degrees) at 5 MPH (4 KT):0
Visibility: 10 mile(s):0
Sky conditions: mostly cloudy
Temperature: 69 F (21 C)
Dew Point: 69 F (21 C)
Relative Humidity: 100%
Pressure (altimeter): 29.96 in. Hg (1014 hPa)
ob: KFDK 270840Z AUTO 19004KT 10SM SCT044 SCT065 BKN080 21/21 A2996 RMK AO2
cycle: 8

Station Type Date Time Source
KFDK TAF UTC NOAA

Error!

Example: see airport list